createdAt,value
2022-08-28T00:00:31.244Z,18.12
2022-08-28T00:02:59.195Z,18.19
2022-08-28T00:05:29.870Z,18.21
2022-08-28T00:07:58.792Z,18.18
2022-08-28T00:10:27.862Z,18.13
2022-08-28T00:12:58.208Z,18.11
2022-08-28T00:15:33.576Z,18.09
2022-08-28T00:18:02.229Z,18.05
2022-08-28T00:20:30.881Z,18.01
2022-08-28T00:22:59.656Z,17.97
2022-08-28T00:25:29.837Z,17.96
2022-08-28T00:28:00.859Z,17.87
2022-08-28T00:30:35.243Z,17.87
2022-08-28T00:33:09.421Z,17.80
2022-08-28T00:35:41.071Z,17.74
2022-08-28T00:38:11.069Z,17.74
2022-08-28T00:40:41.172Z,17.78
2022-08-28T00:43:11.076Z,17.77
2022-08-28T00:45:40.035Z,17.81
2022-08-28T00:48:08.271Z,17.73
2022-08-28T00:51:12.048Z,17.64
2022-08-28T00:53:39.509Z,17.50
2022-08-28T00:56:13.065Z,17.34
2022-08-28T00:58:44.341Z,17.39
2022-08-28T01:01:13.102Z,17.39
2022-08-28T01:03:41.691Z,17.38
2022-08-28T01:06:09.698Z,17.17
2022-08-28T01:08:40.896Z,17.29
2022-08-28T01:11:09.155Z,17.22
2022-08-28T01:13:40.287Z,17.27
2022-08-28T01:16:08.930Z,17.27
2022-08-28T01:18:36.333Z,17.29
2022-08-28T01:21:12.722Z,17.26
2022-08-28T01:23:58.143Z,17.22
2022-08-28T01:26:29.842Z,17.20
2022-08-28T01:29:00.953Z,17.15
2022-08-28T01:31:31.784Z,17.18
2022-08-28T01:33:59.599Z,17.21
2022-08-28T01:36:29.224Z,17.19
2022-08-28T01:39:19.259Z,17.20
2022-08-28T01:41:51.876Z,17.21
2022-08-28T01:44:24.842Z,17.11
2022-08-28T01:46:58.304Z,17.05
2022-08-28T01:49:29.344Z,17.06
2022-08-28T01:51:58.197Z,17.10
2022-08-28T01:54:28.871Z,17.11
2022-08-28T01:56:56.462Z,17.12
2022-08-28T01:59:24.220Z,17.09
2022-08-28T02:01:51.468Z,17.14
2022-08-28T02:04:18.845Z,17.09
2022-08-28T02:06:47.890Z,17.12
2022-08-28T02:09:15.155Z,17.20
2022-08-28T02:11:46.571Z,17.20
2022-08-28T02:14:15.122Z,17.27
2022-08-28T02:16:42.538Z,17.28
2022-08-28T02:19:10.088Z,17.21
2022-08-28T02:21:37.279Z,17.15
2022-08-28T02:24:05.057Z,17.15
2022-08-28T02:26:32.529Z,17.08
2022-08-28T02:28:59.987Z,17.06
2022-08-28T02:31:28.039Z,17.09
2022-08-28T02:33:55.976Z,17.08
2022-08-28T02:36:24.118Z,17.12
2022-08-28T02:38:57.369Z,17.05
2022-08-28T02:41:25.857Z,16.94
2022-08-28T02:43:53.352Z,16.95
2022-08-28T02:46:20.683Z,16.88
2022-08-28T02:48:47.965Z,16.90
2022-08-28T02:51:15.594Z,16.87
2022-08-28T02:53:43.282Z,16.75
2022-08-28T02:56:11.930Z,16.72
2022-08-28T02:58:40.780Z,16.68
2022-08-28T03:01:11.478Z,16.72
2022-08-28T03:03:40.820Z,16.67
2022-08-28T03:06:12.633Z,16.70
2022-08-28T03:08:42.294Z,16.71
2022-08-28T03:11:09.771Z,16.75
2022-08-28T03:13:37.178Z,16.78
2022-08-28T03:16:05.536Z,16.80
2022-08-28T03:18:33.308Z,16.81
2022-08-28T03:21:01.420Z,16.78
2022-08-28T03:23:28.940Z,16.75
2022-08-28T03:26:16.918Z,16.73
2022-08-28T03:28:49.711Z,16.80
2022-08-28T03:31:22.210Z,16.96
2022-08-28T03:33:50.783Z,17.06
2022-08-28T03:36:23.342Z,17.12
2022-08-28T03:38:53.580Z,17.17
2022-08-28T03:41:23.375Z,17.19
2022-08-28T03:43:51.382Z,17.24
2022-08-28T03:46:24.200Z,17.30
2022-08-28T03:48:53.347Z,17.32
2022-08-28T03:51:29.179Z,17.30
2022-08-28T03:53:58.910Z,17.22
2022-08-28T03:56:28.864Z,17.22
2022-08-28T03:59:00.661Z,17.15
2022-08-28T04:01:28.556Z,17.14
2022-08-28T04:03:56.556Z,17.13
2022-08-28T04:06:24.311Z,17.17
2022-08-28T04:08:51.733Z,17.20
2022-08-28T04:11:19.123Z,17.32
2022-08-28T04:13:46.475Z,17.39
2022-08-28T04:16:19.194Z,17.40
2022-08-28T04:18:50.075Z,17.55
2022-08-28T04:21:23.590Z,17.64
2022-08-28T04:23:51.355Z,17.81
2022-08-28T04:26:25.225Z,17.96
2022-08-28T04:28:55.068Z,18.08
2022-08-28T04:31:32.222Z,18.19
2022-08-28T04:34:06.339Z,18.31
2022-08-28T04:36:34.365Z,18.68
2022-08-28T04:39:06.038Z,19.05
2022-08-28T04:41:33.466Z,19.15
2022-08-28T04:44:00.761Z,19.39
2022-08-28T04:46:30.997Z,19.54
2022-08-28T04:48:59.579Z,19.42
2022-08-28T04:51:27.294Z,19.50
2022-08-28T04:53:54.710Z,19.51
2022-08-28T04:56:22.314Z,19.77
2022-08-28T04:58:49.946Z,19.85
2022-08-28T05:01:24.719Z,19.95
2022-08-28T05:03:59.335Z,19.95
2022-08-28T05:06:28.880Z,19.93
2022-08-28T05:08:59.401Z,20.18
2022-08-28T05:11:34.408Z,20.41
2022-08-28T05:14:12.687Z,20.75
2022-08-28T05:16:47.789Z,21.24
2022-08-28T05:19:18.344Z,21.47
2022-08-28T05:21:45.762Z,21.64
2022-08-28T05:24:13.995Z,21.77
2022-08-28T05:26:42.155Z,21.91
2022-08-28T05:29:11.459Z,22.05
2022-08-28T05:31:41.752Z,22.06
2022-08-28T05:34:10.549Z,22.28
2022-08-28T05:36:39.575Z,22.75
2022-08-28T05:39:10.911Z,23.06
2022-08-28T05:41:42.914Z,23.32
2022-08-28T05:44:13.355Z,23.48
2022-08-28T05:46:44.603Z,24.03
2022-08-28T05:49:13.542Z,24.27
2022-08-28T05:51:43.005Z,24.76
2022-08-28T05:54:11.306Z,25.13
2022-08-28T05:56:40.818Z,25.40
2022-08-28T05:59:10.133Z,25.53
2022-08-28T06:01:45.940Z,25.11
2022-08-28T06:04:25.527Z,24.66
2022-08-28T06:06:54.059Z,24.30
2022-08-28T06:09:29.748Z,24.30
2022-08-28T06:12:01.831Z,24.40
2022-08-28T06:14:31.264Z,24.47
2022-08-28T06:17:00.041Z,24.94
2022-08-28T06:19:30.283Z,25.29
2022-08-28T06:22:00.942Z,25.14
2022-08-28T06:24:34.910Z,25.29
2022-08-28T06:27:02.251Z,25.55
2022-08-28T06:29:30.388Z,25.99
2022-08-28T06:32:04.839Z,26.31
2022-08-28T06:34:32.554Z,26.23
2022-08-28T06:37:00.749Z,26.54
2022-08-28T06:39:28.198Z,26.87
2022-08-28T06:41:55.566Z,27.12
2022-08-28T06:44:23.364Z,28.08
2022-08-28T06:46:54.529Z,28.37
2022-08-28T06:49:22.820Z,28.28
2022-08-28T06:51:51.218Z,28.36
2022-08-28T06:54:22.761Z,28.05
2022-08-28T06:56:52.342Z,27.82
2022-08-28T06:59:19.870Z,27.54
2022-08-28T07:01:47.579Z,27.41
2022-08-28T07:04:15.047Z,27.17
2022-08-28T07:06:53.715Z,27.12
2022-08-28T07:09:22.214Z,26.96
2022-08-28T07:11:49.655Z,26.66
2022-08-28T07:14:17.285Z,26.33
2022-08-28T07:16:44.637Z,25.83
2022-08-28T07:19:13.885Z,25.64
2022-08-28T07:21:45.800Z,25.37
2022-08-28T07:24:15.508Z,25.10
2022-08-28T07:26:44.672Z,24.98
2022-08-28T07:29:12.615Z,24.79
2022-08-28T07:31:46.628Z,24.30
2022-08-28T07:34:15.650Z,24.25
2022-08-28T07:36:43.478Z,24.23
2022-08-28T07:39:14.052Z,24.17
2022-08-28T07:41:42.992Z,24.14
2022-08-28T07:44:33.929Z,24.14
2022-08-28T07:47:05.846Z,24.06
2022-08-28T07:49:34.897Z,23.77
2022-08-28T07:52:04.118Z,23.85
2022-08-28T07:54:31.631Z,23.89
2022-08-28T07:56:59.164Z,23.72
2022-08-28T07:59:26.511Z,23.91
2022-08-28T08:01:54.223Z,24.01
2022-08-28T08:04:24.285Z,24.22
2022-08-28T08:06:57.841Z,24.04
2022-08-28T08:09:26.239Z,24.19
2022-08-28T08:11:55.172Z,24.48
2022-08-28T08:14:23.286Z,24.71
2022-08-28T08:16:52.462Z,24.94
2022-08-28T08:19:20.669Z,25.18
2022-08-28T08:21:55.185Z,25.19
2022-08-28T08:24:28.555Z,25.29
2022-08-28T08:27:00.915Z,25.79
2022-08-28T08:29:35.975Z,26.97
2022-08-28T08:32:08.603Z,27.75
2022-08-28T08:34:42.976Z,28.54
2022-08-28T08:37:12.766Z,28.87
2022-08-28T08:39:42.600Z,29.89
2022-08-28T08:42:30.826Z,29.96
2022-08-28T08:45:04.374Z,30.10
2022-08-28T08:47:54.081Z,30.84
2022-08-28T08:50:25.719Z,31.20
2022-08-28T08:53:40.748Z,30.93
2022-08-28T08:56:12.636Z,31.72
2022-08-28T08:58:52.352Z,32.06
2022-08-28T09:01:53.383Z,32.07
2022-08-28T09:04:29.372Z,32.74
2022-08-28T09:07:10.363Z,33.47
2022-08-28T09:09:47.112Z,32.18
2022-08-28T09:12:23.153Z,32.25
2022-08-28T09:15:09.755Z,32.86
2022-08-28T09:17:49.140Z,33.14
2022-08-28T09:20:33.094Z,36.13
2022-08-28T09:23:01.960Z,37.13
2022-08-28T09:25:44.666Z,34.54
2022-08-28T09:28:31.552Z,32.36
2022-08-28T09:31:06.612Z,30.52
2022-08-28T09:33:42.197Z,29.92
2022-08-28T09:36:32.216Z,28.93
2022-08-28T09:39:19.439Z,28.05
2022-08-28T09:42:26.221Z,28.00
2022-08-28T09:45:15.112Z,27.89
2022-08-28T09:47:55.901Z,27.64
2022-08-28T09:50:44.607Z,27.14
2022-08-28T09:53:11.845Z,26.94
2022-08-28T09:56:11.755Z,27.03
2022-08-28T09:58:49.828Z,26.84
2022-08-28T10:01:44.568Z,26.67
2022-08-28T10:04:28.672Z,26.44
2022-08-28T10:07:29.237Z,26.37
2022-08-28T10:10:21.182Z,26.47
2022-08-28T10:13:30.241Z,26.32
2022-08-28T10:16:26.298Z,26.10
2022-08-28T10:19:19.658Z,25.95
2022-08-28T10:22:28.750Z,26.25
2022-08-28T10:25:10.796Z,26.34
2022-08-28T10:28:05.775Z,26.17
2022-08-28T10:30:44.780Z,26.19
2022-08-28T10:33:39.967Z,26.13
2022-08-28T10:36:34.689Z,26.11
2022-08-28T10:39:57.835Z,26.41
2022-08-28T10:42:48.305Z,26.24
2022-08-28T10:45:26.212Z,26.32
2022-08-28T10:48:05.156Z,26.17
2022-08-28T10:50:57.173Z,26.37
2022-08-28T10:53:46.281Z,26.57
2022-08-28T10:56:25.579Z,26.64
2022-08-28T10:58:59.341Z,26.51
2022-08-28T11:01:33.046Z,26.45
2022-08-28T11:04:25.596Z,26.74
2022-08-28T11:06:59.891Z,26.61
2022-08-28T11:09:43.407Z,26.52
2022-08-28T11:12:16.402Z,26.25
2022-08-28T11:14:47.935Z,26.41
2022-08-28T11:17:27.959Z,26.60
2022-08-28T11:20:17.891Z,26.81
2022-08-28T11:23:10.525Z,26.78
2022-08-28T11:26:00.393Z,26.79
2022-08-28T11:28:36.899Z,26.84
2022-08-28T11:31:04.232Z,26.72
2022-08-28T11:33:39.531Z,26.89
2022-08-28T11:36:30.165Z,27.10
2022-08-28T11:38:57.879Z,27.52
2022-08-28T11:41:32.761Z,27.99
2022-08-28T11:44:14.978Z,28.00
2022-08-28T11:46:45.010Z,27.62
2022-08-28T11:49:24.566Z,27.47
2022-08-28T11:52:11.932Z,27.38
2022-08-28T11:55:09.810Z,27.15
2022-08-28T11:58:30.294Z,26.73
2022-08-28T12:01:08.468Z,26.31
2022-08-28T12:03:43.169Z,25.87
2022-08-28T12:06:13.377Z,25.67
2022-08-28T12:08:51.369Z,25.25
2022-08-28T12:11:41.785Z,24.90
2022-08-28T12:14:28.366Z,24.77
2022-08-28T12:21:12.740Z,24.65
2022-08-28T12:23:45.132Z,24.59
2022-08-28T12:26:39.993Z,24.46
2022-08-28T12:29:29.030Z,24.06
2022-08-28T12:32:24.805Z,23.61
2022-08-28T12:34:57.902Z,23.19
2022-08-28T12:37:52.595Z,22.86
2022-08-28T12:40:53.540Z,22.33
2022-08-28T12:43:35.994Z,21.87
2022-08-28T12:46:33.168Z,21.60
2022-08-28T12:49:03.984Z,21.33
2022-08-28T12:51:37.968Z,20.92
2022-08-28T12:54:08.866Z,20.59
2022-08-28T12:56:39.328Z,20.50
2022-08-28T12:59:41.727Z,20.31
2022-08-28T13:02:18.831Z,20.19
2022-08-28T13:05:01.891Z,20.18
2022-08-28T13:07:36.049Z,20.13
2022-08-28T13:10:29.905Z,20.27
2022-08-28T13:13:05.582Z,20.32
2022-08-28T13:15:52.213Z,20.23
2022-08-28T13:18:44.669Z,20.20
2022-08-28T13:21:33.994Z,20.28
2022-08-28T13:24:23.673Z,20.34
2022-08-28T13:27:09.019Z,20.42
2022-08-28T13:29:37.563Z,20.52
2022-08-28T13:32:15.537Z,20.63
2022-08-28T13:35:02.048Z,20.74
2022-08-28T13:37:52.196Z,20.82
2022-08-28T13:40:56.489Z,20.82
2022-08-28T13:43:19.806Z,20.73
2022-08-28T13:45:49.705Z,20.82
2022-08-28T13:48:24.150Z,20.97
2022-08-28T13:51:10.642Z,21.09
2022-08-28T13:53:39.501Z,21.00
2022-08-28T13:56:07.271Z,21.14
2022-08-28T13:58:35.151Z,21.18
2022-08-28T14:01:04.874Z,21.18
2022-08-28T14:03:36.449Z,21.21
2022-08-28T14:06:14.567Z,21.38
2022-08-28T14:08:44.038Z,21.48
2022-08-28T14:11:13.385Z,21.56
2022-08-28T14:13:47.029Z,21.76
2022-08-28T14:16:27.049Z,21.87
2022-08-28T14:18:54.497Z,21.86
2022-08-28T14:21:24.738Z,22.01
2022-08-28T14:23:52.263Z,22.12
2022-08-28T14:26:19.630Z,22.20
2022-08-28T14:28:47.337Z,22.40
2022-08-28T14:31:15.028Z,22.60
2022-08-28T14:33:45.373Z,22.59
2022-08-28T14:36:23.355Z,22.52
2022-08-28T14:38:54.300Z,22.67
2022-08-28T14:41:23.569Z,22.83
2022-08-28T14:43:52.458Z,23.01
2022-08-28T14:46:28.670Z,22.99
2022-08-28T14:49:09.057Z,22.81
2022-08-28T14:51:39.372Z,22.90
2022-08-28T14:54:07.659Z,23.05
2022-08-28T14:56:35.742Z,22.89
2022-08-28T14:59:06.266Z,22.78
2022-08-28T15:01:40.927Z,22.89
2022-08-28T15:04:13.043Z,23.04
2022-08-28T15:06:42.609Z,22.82
2022-08-28T15:09:12.830Z,22.80
2022-08-28T15:11:40.604Z,22.63
2022-08-28T15:14:08.790Z,22.81
2022-08-28T15:16:42.793Z,22.84
2022-08-28T15:19:12.506Z,22.79
2022-08-28T15:21:46.336Z,22.73
2022-08-28T15:24:16.454Z,22.79
2022-08-28T15:26:44.157Z,22.86
2022-08-28T15:29:12.166Z,22.75
2022-08-28T15:31:44.529Z,22.65
2022-08-28T15:34:25.895Z,22.54
2022-08-28T15:36:55.495Z,22.26
2022-08-28T15:39:46.747Z,22.28
2022-08-28T15:42:15.138Z,22.28
2022-08-28T15:44:42.959Z,22.23
2022-08-28T15:47:12.667Z,22.26
2022-08-28T15:49:48.551Z,22.29
2022-08-28T15:52:19.364Z,22.33
2022-08-28T15:54:48.173Z,22.39
2022-08-28T15:57:15.986Z,22.47
2022-08-28T15:59:49.589Z,22.52
2022-08-28T16:02:23.334Z,22.56
2022-08-28T16:04:51.606Z,22.45
2022-08-28T16:07:21.063Z,22.14
2022-08-28T16:09:49.227Z,22.22
2022-08-28T16:12:16.732Z,22.33
2022-08-28T16:14:44.469Z,22.29
2022-08-28T16:17:12.410Z,22.15
2022-08-28T16:19:40.774Z,22.05
2022-08-28T16:22:10.423Z,21.99
2022-08-28T16:24:38.385Z,21.78
2022-08-28T16:27:09.500Z,21.76
2022-08-28T16:29:39.792Z,21.79
2022-08-28T16:32:08.616Z,21.76
2022-08-28T16:34:39.902Z,21.66
2022-08-28T16:37:07.969Z,21.61
2022-08-28T16:39:36.642Z,21.59
2022-08-28T16:42:04.639Z,21.57
2022-08-28T16:44:32.082Z,21.40
2022-08-28T16:46:59.742Z,21.38
2022-08-28T16:49:27.060Z,21.33
2022-08-28T16:51:54.560Z,21.34
2022-08-28T16:54:22.165Z,21.25
2022-08-28T16:56:49.645Z,21.21
2022-08-28T16:59:18.443Z,21.22
2022-08-28T17:01:46.649Z,21.17
2022-08-28T17:04:20.759Z,21.14
2022-08-28T17:06:48.129Z,21.12
2022-08-28T17:09:15.608Z,21.06
2022-08-28T17:11:43.383Z,20.99
2022-08-28T17:14:12.151Z,20.93
2022-08-28T17:16:39.786Z,20.80
2022-08-28T17:19:07.185Z,20.75
2022-08-28T17:21:53.308Z,20.79
2022-08-28T17:24:20.974Z,20.61
2022-08-28T17:26:48.311Z,20.58
2022-08-28T17:29:15.848Z,20.53
2022-08-28T17:31:43.899Z,20.54
2022-08-28T17:34:11.363Z,20.47
2022-08-28T17:36:42.487Z,20.39
2022-08-28T17:39:14.880Z,20.21
2022-08-28T17:41:42.426Z,20.19
2022-08-28T17:44:10.055Z,20.08
2022-08-28T17:46:38.312Z,20.08
2022-08-28T17:49:07.580Z,20.15
2022-08-28T17:51:43.304Z,20.03
2022-08-28T17:54:14.387Z,20.05
2022-08-28T17:56:41.924Z,20.09
2022-08-28T17:59:11.518Z,20.00
2022-08-28T18:01:39.936Z,19.97
2022-08-28T18:04:07.852Z,19.99
2022-08-28T18:06:35.454Z,20.00
2022-08-28T18:09:04.207Z,20.04
2022-08-28T18:11:31.825Z,20.05
2022-08-28T18:14:02.495Z,20.01
2022-08-28T18:16:34.271Z,20.05
2022-08-28T18:19:02.685Z,19.98
2022-08-28T18:21:30.561Z,19.95
2022-08-28T18:23:58.195Z,19.90
2022-08-28T18:26:26.009Z,19.92
2022-08-28T18:28:53.542Z,19.84
2022-08-28T18:31:21.189Z,19.79
2022-08-28T18:33:48.944Z,19.85
2022-08-28T18:36:17.488Z,19.82
2022-08-28T18:38:45.422Z,19.87
2022-08-28T18:41:13.187Z,19.89
2022-08-28T18:43:40.770Z,19.80
2022-08-28T18:46:09.947Z,19.82
2022-08-28T18:48:38.183Z,19.85
2022-08-28T18:51:11.433Z,19.90
2022-08-28T18:53:42.376Z,19.84
2022-08-28T18:56:12.307Z,19.78
2022-08-28T18:58:41.442Z,19.83
2022-08-28T19:01:09.830Z,19.85
2022-08-28T19:03:38.143Z,19.87
2022-08-28T19:06:06.525Z,19.83
2022-08-28T19:08:36.853Z,19.79
2022-08-28T19:11:09.552Z,19.80
2022-08-28T19:13:37.740Z,19.76
2022-08-28T19:16:06.017Z,19.69
2022-08-28T19:18:34.172Z,19.72
2022-08-28T19:21:16.266Z,19.67
2022-08-28T19:23:51.780Z,19.68
2022-08-28T19:26:26.661Z,19.68
2022-08-28T19:28:55.439Z,19.66
2022-08-28T19:31:27.355Z,19.56
2022-08-28T19:33:55.356Z,19.56
2022-08-28T19:36:23.456Z,19.52
2022-08-28T19:38:50.848Z,19.38
2022-08-28T19:41:18.266Z,19.35
2022-08-28T19:43:45.737Z,19.24
2022-08-28T19:46:19.515Z,19.21
2022-08-28T19:48:49.994Z,19.07
2022-08-28T19:51:22.476Z,19.02
2022-08-28T19:53:59.047Z,19.08
2022-08-28T19:56:28.641Z,19.07
2022-08-28T19:59:01.869Z,18.99
2022-08-28T20:01:33.594Z,18.99
2022-08-28T20:04:01.218Z,18.94
2022-08-28T20:06:32.084Z,18.89
2022-08-28T20:09:00.569Z,18.79
2022-08-28T20:11:30.440Z,18.71
2022-08-28T20:14:04.725Z,18.74
2022-08-28T20:16:37.217Z,18.73
2022-08-28T20:19:08.149Z,18.70
2022-08-28T20:21:39.067Z,18.71
2022-08-28T20:24:11.135Z,18.71
2022-08-28T20:26:38.949Z,18.73
2022-08-28T20:29:08.686Z,18.71
2022-08-28T20:31:40.621Z,18.73
2022-08-28T20:34:10.441Z,18.69
2022-08-28T20:36:38.618Z,18.71
2022-08-28T20:39:09.304Z,18.67
2022-08-28T20:41:40.374Z,18.73
2022-08-28T20:44:11.793Z,18.65
2022-08-28T20:46:42.212Z,18.64
2022-08-28T20:49:12.490Z,18.68
2022-08-28T20:51:56.483Z,18.65
2022-08-28T20:54:32.030Z,18.59
2022-08-28T20:57:03.753Z,18.62
2022-08-28T20:59:37.245Z,18.51
2022-08-28T21:02:13.675Z,18.53
2022-08-28T21:04:42.428Z,18.52
2022-08-28T21:07:10.843Z,18.54
2022-08-28T21:10:06.180Z,18.55
2022-08-28T21:12:26.430Z,18.50
2022-08-28T21:14:54.086Z,18.48
2022-08-28T21:17:30.250Z,18.52
2022-08-28T21:20:07.091Z,18.57
2022-08-28T21:22:35.943Z,18.53
2022-08-28T21:25:07.413Z,18.55
2022-08-28T21:27:36.466Z,18.58
2022-08-28T21:30:07.260Z,18.57
2022-08-28T21:32:36.359Z,18.53
2022-08-28T21:35:07.786Z,18.43
2022-08-28T21:37:35.648Z,18.52
2022-08-28T21:40:05.083Z,18.40
2022-08-28T21:42:32.680Z,18.43
2022-08-28T21:45:00.613Z,18.46
2022-08-28T21:47:28.397Z,18.48
2022-08-28T21:49:57.716Z,18.50
2022-08-28T21:52:29.851Z,18.57
2022-08-28T21:55:06.750Z,18.52
2022-08-28T21:57:34.558Z,18.49
2022-08-28T22:00:01.936Z,18.54
2022-08-28T22:02:29.366Z,18.55
2022-08-28T22:04:56.710Z,18.48
2022-08-28T22:07:24.077Z,18.37
2022-08-28T22:09:51.929Z,18.34
2022-08-28T22:12:19.522Z,18.37
2022-08-28T22:14:46.991Z,18.36
2022-08-28T22:17:15.221Z,18.36
2022-08-28T22:19:42.666Z,18.40
2022-08-28T22:22:33.834Z,18.38
2022-08-28T22:25:01.297Z,18.34
2022-08-28T22:27:28.891Z,18.34
2022-08-28T22:29:56.588Z,18.23
2022-08-28T22:32:26.883Z,18.25
2022-08-28T22:34:55.387Z,18.26
2022-08-28T22:37:23.444Z,18.30
2022-08-28T22:39:50.824Z,18.26
2022-08-28T22:42:18.381Z,18.19
2022-08-28T22:44:47.047Z,18.25
2022-08-28T22:47:14.424Z,18.39
2022-08-28T22:49:41.758Z,18.26
2022-08-28T22:52:12.439Z,18.25
2022-08-28T22:54:39.772Z,18.23
2022-08-28T22:57:07.231Z,18.21
2022-08-28T22:59:35.272Z,18.25
2022-08-28T23:02:03.999Z,18.34
2022-08-28T23:04:31.508Z,18.29
2022-08-28T23:06:59.015Z,18.31
2022-08-28T23:09:26.489Z,18.30
2022-08-28T23:11:53.874Z,18.34
2022-08-28T23:14:21.293Z,18.34
2022-08-28T23:16:49.282Z,18.31
2022-08-28T23:19:17.954Z,18.26
2022-08-28T23:21:45.349Z,18.31
2022-08-28T23:24:16.474Z,18.24
2022-08-28T23:26:45.605Z,18.30
2022-08-28T23:29:13.837Z,18.30
2022-08-28T23:31:41.725Z,18.35
2022-08-28T23:34:09.713Z,18.39
2022-08-28T23:36:39.520Z,18.31
2022-08-28T23:39:10.613Z,18.27
2022-08-28T23:41:38.046Z,18.32
2022-08-28T23:44:08.764Z,18.29
2022-08-28T23:46:41.073Z,18.29
2022-08-28T23:49:09.622Z,18.40
2022-08-28T23:51:37.038Z,18.33
2022-08-28T23:54:04.595Z,18.33
2022-08-28T23:56:33.736Z,18.31
2022-08-28T23:59:00.991Z,18.30
